KDUA/DUA METAR and TAF weather

Enter ICAO airport designator
Station Type Date Time Source
KDUA METAR 2020/06/01 16:15 UTC NOAA

KDUA 011615Z AUTO 16006KT 10SM CLR 26/15 A3020 RMK AO2


Station Type Date Time Source
KDUA Decoded METAR 2020/06/01 16:15 UTC NOAA

Durant, Eaker Field Airport, OK, United States (KDUA) 33-56-32N 096-23-40W
Jun 01, 2020 - 12:15 PM EDT / 2020.06.01 1615 UTC
Wind: from the SSE (160 degrees) at 7 MPH (6 KT):0
Visibility: 10 mile(s):0
Sky conditions: clear
Temperature: 78 F (26 C)
Dew Point: 59 F (15 C)
Relative Humidity: 50%
Pressure (altimeter): 30.2 in. Hg (1022 hPa)
ob: KDUA 011615Z AUTO 16006KT 10SM CLR 26/15 A3020 RMK AO2
cycle: 16

Station Type Date Time Source
KDUA TAF UTC NOAA

Error!

Example: see airport list